createdAt,value
2019-04-03T00:04:52.182Z,99691.78
2019-04-03T00:09:55.748Z,99694.90
2019-04-03T00:14:59.357Z,99694.28
2019-04-03T00:20:03.066Z,99689.55
2019-04-03T00:25:07.420Z,99685.91
2019-04-03T00:30:10.982Z,99686.70
2019-04-03T00:35:14.709Z,99683.28
2019-04-03T00:40:18.218Z,99671.28
2019-04-03T00:45:24.204Z,99669.38
2019-04-03T00:50:27.223Z,99670.78
2019-04-03T00:55:30.749Z,99665.73
2019-04-03T01:00:34.324Z,99661.69
2019-04-03T01:05:37.894Z,99660.77
2019-04-03T01:10:41.473Z,99656.45
2019-04-03T01:15:45.047Z,99651.29
2019-04-03T01:20:48.721Z,99647.85
2019-04-03T01:25:52.392Z,99646.12
2019-04-03T01:30:56.014Z,99644.85
2019-04-03T01:35:59.590Z,99643.40
2019-04-03T01:41:03.151Z,99631.66
2019-04-03T01:46:06.911Z,99625.58
2019-04-03T01:51:10.522Z,99632.61
2019-04-03T01:56:14.084Z,99626.69
2019-04-03T02:01:17.737Z,99621.51
2019-04-03T02:06:21.311Z,99614.97
2019-04-03T02:11:25.057Z,99604.45
2019-04-03T02:16:28.623Z,99605.03
2019-04-03T02:21:32.227Z,99601.39
2019-04-03T02:26:35.927Z,99585.20
2019-04-03T02:31:39.736Z,99582.72
2019-04-03T02:36:45.010Z,99574.87
2019-04-03T02:41:48.687Z,99578.47
2019-04-03T02:46:52.261Z,99569.69
2019-04-03T02:51:56.027Z,99562.60
2019-04-03T02:56:59.633Z,99561.92
2019-04-03T03:02:03.206Z,99553.28
2019-04-03T03:07:06.775Z,99561.72
2019-04-03T03:12:10.624Z,99550.27
2019-04-03T03:17:14.450Z,99556.28
2019-04-03T03:22:18.965Z,99552.91
2019-04-03T03:27:22.714Z,99551.81
2019-04-03T03:32:32.540Z,99559.51
2019-04-03T03:37:34.031Z,99560.36
2019-04-03T03:42:37.316Z,99555.36
2019-04-03T03:47:40.897Z,99551.80
2019-04-03T03:52:44.449Z,99551.89
2019-04-03T03:57:48.010Z,99545.47
2019-04-03T04:02:51.925Z,99542.45
2019-04-03T04:07:55.935Z,99536.00
2019-04-03T04:12:59.505Z,99539.06
2019-04-03T04:18:03.925Z,99528.57
2019-04-03T04:23:07.636Z,99521.06
2019-04-03T04:28:11.415Z,99513.92
2019-04-03T04:33:17.021Z,99517.39
2019-04-03T04:38:20.385Z,99510.16
2019-04-03T04:43:23.942Z,99508.93
2019-04-03T04:48:27.613Z,99509.67
2019-04-03T04:53:31.153Z,99506.68
2019-04-03T04:58:34.726Z,99503.27
2019-04-03T05:03:38.432Z,99500.59
2019-04-03T05:08:41.954Z,99497.44
2019-04-03T05:13:46.794Z,99493.68
2019-04-03T05:18:50.901Z,99495.58
2019-04-03T05:23:56.332Z,99501.03
2019-04-03T05:28:59.824Z,99503.38
2019-04-03T05:34:03.455Z,99506.41
2019-04-03T05:39:08.128Z,99508.84
2019-04-03T05:44:11.758Z,99499.44
2019-04-03T05:49:15.490Z,99496.73
2019-04-03T05:54:19.061Z,99503.68
2019-04-03T05:59:22.640Z,99502.22
2019-04-03T06:04:26.332Z,99495.70
2019-04-03T06:09:30.052Z,99491.61
2019-04-03T06:14:33.671Z,99499.52
2019-04-03T06:19:39.510Z,99491.85
2019-04-03T06:24:42.647Z,99497.51
2019-04-03T06:29:46.221Z,99491.33
2019-04-03T06:34:49.888Z,99500.34
2019-04-03T06:39:53.468Z,99494.35
2019-04-03T06:44:57.029Z,99494.33
2019-04-03T06:50:00.617Z,99486.87
2019-04-03T06:55:05.930Z,99481.83
2019-04-03T07:00:09.499Z,99470.19
2019-04-03T07:05:13.121Z,99477.59
2019-04-03T07:10:25.062Z,99473.45
2019-04-03T07:15:23.989Z,99471.86
2019-04-03T07:20:27.467Z,99468.48
2019-04-03T07:25:33.331Z,99465.00
2019-04-03T07:30:36.355Z,99465.58
2019-04-03T07:35:40.646Z,99467.50
2019-04-03T07:40:44.288Z,99457.39
2019-04-03T07:45:47.859Z,99460.61
2019-04-03T07:50:51.432Z,99451.20
2019-04-03T07:55:55.959Z,99451.26
2019-04-03T08:00:59.833Z,99449.75
2019-04-03T08:06:04.463Z,99448.09
2019-04-03T08:11:08.185Z,99447.95
2019-04-03T08:16:11.919Z,99453.63
2019-04-03T08:21:15.505Z,99446.42
2019-04-03T08:26:19.908Z,99442.42
2019-04-03T08:31:23.593Z,99441.23
2019-04-03T08:36:27.298Z,99437.24
2019-04-03T08:41:31.112Z,99435.91
2019-04-03T08:46:34.744Z,99431.13
2019-04-03T08:51:38.364Z,99429.91
2019-04-03T08:56:42.183Z,99425.41
2019-04-03T09:01:46.039Z,99425.05
2019-04-03T09:06:49.850Z,99419.29
2019-04-03T09:11:53.542Z,99409.13
2019-04-03T09:16:57.118Z,99405.49
2019-04-03T09:22:00.816Z,99411.69
2019-04-03T09:27:05.041Z,99398.45
2019-04-03T09:32:08.650Z,99396.52
2019-04-03T09:37:12.290Z,99392.91
2019-04-03T09:42:15.994Z,99389.52
2019-04-03T09:47:19.616Z,99386.59
2019-04-03T09:52:24.042Z,99380.34
2019-04-03T09:57:30.673Z,99370.01
2019-04-03T10:02:33.834Z,99363.61
2019-04-03T10:07:37.603Z,99355.53
2019-04-03T10:12:43.007Z,99363.46
2019-04-03T10:17:46.508Z,99342.88
2019-04-03T10:22:50.068Z,99343.34
2019-04-03T10:27:53.637Z,99344.48
2019-04-03T10:32:59.578Z,99328.56
2019-04-03T10:38:02.494Z,99323.64
2019-04-03T10:43:06.651Z,99317.45
2019-04-03T10:48:10.431Z,99307.20
2019-04-03T10:53:14.026Z,99316.17
2019-04-03T10:58:17.841Z,99311.84
2019-04-03T11:03:21.747Z,99296.82
2019-04-03T11:08:25.410Z,99300.87
2019-04-03T11:13:29.117Z,99289.45
2019-04-03T11:18:32.846Z,99277.59
2019-04-03T11:23:42.153Z,99288.34
2019-04-03T11:28:41.830Z,99267.97
2019-04-03T11:33:46.301Z,99264.98
2019-04-03T11:38:50.500Z,99258.09
2019-04-03T11:43:54.191Z,99260.88
2019-04-03T11:48:57.942Z,99243.57
2019-04-03T11:54:01.676Z,99236.84
2019-04-03T11:59:05.292Z,99239.14
2019-04-03T12:04:12.056Z,99229.80
2019-04-03T12:09:14.365Z,99231.16
2019-04-03T12:14:18.702Z,99229.85
2019-04-03T12:19:22.606Z,99214.47
2019-04-03T12:24:26.249Z,99228.80
2019-04-03T12:29:29.874Z,99216.82
2019-04-03T12:34:36.631Z,99208.37
2019-04-03T12:39:39.932Z,99203.17
2019-04-03T12:44:43.700Z,99200.31
2019-04-03T12:49:47.264Z,99178.25
2019-04-03T12:54:52.948Z,99184.28
2019-04-03T12:59:56.706Z,99180.58
2019-04-03T13:05:05.045Z,99173.70
2019-04-03T13:10:08.574Z,99162.05
2019-04-03T13:15:12.570Z,99166.52
2019-04-03T13:20:16.690Z,99181.24
2019-04-03T13:25:21.535Z,99160.31
2019-04-03T13:30:25.899Z,99156.42
2019-04-03T13:35:29.795Z,99153.03
2019-04-03T13:40:34.938Z,99146.30
2019-04-03T13:45:39.042Z,99155.00
2019-04-03T13:50:45.067Z,99142.69
2019-04-03T13:55:48.097Z,99129.15
2019-04-03T14:00:59.572Z,99127.49
2019-04-03T14:05:57.075Z,99131.16
2019-04-03T14:11:00.641Z,99129.20
2019-04-03T14:21:07.669Z,99114.91
2019-04-03T14:26:14.277Z,99107.38
2019-04-03T14:31:17.828Z,99110.11
2019-04-03T14:36:21.763Z,99113.92
2019-04-03T14:41:25.379Z,99113.24
2019-04-03T14:46:29.146Z,99115.14
2019-04-03T14:51:32.818Z,99100.09
2019-04-03T14:56:36.879Z,99102.53
2019-04-03T15:01:40.984Z,99092.28
2019-04-03T15:06:46.347Z,99095.91
2019-04-03T15:11:50.310Z,99092.12
2019-04-03T15:16:54.023Z,99091.69
2019-04-03T15:22:01.486Z,99091.46
2019-04-03T15:27:03.072Z,99088.06
2019-04-03T15:32:06.688Z,99084.07
2019-04-03T15:37:13.313Z,99089.02
2019-04-03T15:42:15.668Z,99086.75
2019-04-03T15:47:33.210Z,99083.38
2019-04-03T15:52:25.135Z,99081.25
2019-04-03T15:57:28.782Z,99076.11
2019-04-03T16:02:32.405Z,99081.04
2019-04-03T16:07:36.091Z,99080.59
2019-04-03T16:12:42.964Z,99073.07
2019-04-03T16:17:45.239Z,99079.39
2019-04-03T16:22:49.215Z,99077.61
2019-04-03T16:27:53.237Z,99067.92
2019-04-03T16:32:59.685Z,99070.07
2019-04-03T16:38:02.340Z,99069.32
2019-04-03T16:43:06.473Z,99067.45
2019-04-03T16:48:10.080Z,99069.38
2019-04-03T16:53:13.673Z,99071.04
2019-04-03T16:58:17.524Z,99069.21
2019-04-03T17:03:21.360Z,99061.07
2019-04-03T17:08:25.947Z,99065.83
2019-04-03T17:13:30.432Z,99058.70
2019-04-03T17:18:34.062Z,99062.84
2019-04-03T17:23:37.594Z,99061.47
2019-04-03T17:28:41.733Z,99071.03
2019-04-03T17:33:45.583Z,99072.63
2019-04-03T17:38:50.277Z,99078.91
2019-04-03T17:43:53.912Z,99077.75
2019-04-03T17:48:57.530Z,99077.48
2019-04-03T17:54:01.100Z,99084.12
2019-04-03T17:59:05.199Z,99091.14
2019-04-03T18:04:09.137Z,99101.20
2019-04-03T18:09:12.844Z,99103.50
2019-04-03T18:14:16.394Z,99107.64
2019-04-03T18:19:20.071Z,99112.02
2019-04-03T18:24:23.774Z,99114.04
2019-04-03T18:29:27.605Z,99120.48
2019-04-03T18:34:31.231Z,99125.30
2019-04-03T18:39:34.860Z,99124.73
2019-04-03T18:44:38.482Z,99120.59
2019-04-03T18:49:42.187Z,99132.36
2019-04-03T18:54:45.806Z,99128.51
2019-04-03T18:59:49.529Z,99132.58
2019-04-03T19:05:01.728Z,99137.69
2019-04-03T19:15:03.794Z,99136.86
2019-04-03T19:20:10.610Z,99137.10
2019-04-03T19:25:13.049Z,99144.33
2019-04-03T19:30:16.674Z,99147.78
2019-04-03T19:35:20.310Z,99150.00
2019-04-03T19:40:23.909Z,99159.59
2019-04-03T19:45:27.881Z,99158.52
2019-04-03T19:50:31.791Z,99161.46
2019-04-03T19:55:35.998Z,99151.66
2019-04-03T20:00:39.588Z,99151.66
2019-04-03T20:05:44.055Z,99145.13
2019-04-03T20:10:49.179Z,99143.17
2019-04-03T20:15:54.569Z,99141.74
2019-04-03T20:20:58.266Z,99139.61
2019-04-03T20:31:05.599Z,99128.51
2019-04-03T20:36:09.733Z,99134.59
2019-04-03T20:41:13.313Z,99133.47
2019-04-03T20:46:16.877Z,99130.50
2019-04-03T20:51:20.456Z,99133.38
2019-04-03T20:56:24.074Z,99127.55
2019-04-03T21:01:27.721Z,99126.97
2019-04-03T21:06:31.384Z,99123.87
2019-04-03T21:11:35.067Z,99122.74
2019-04-03T21:16:38.618Z,99118.80
2019-04-03T21:21:42.203Z,99117.20
2019-04-03T21:26:45.776Z,99117.69
2019-04-03T21:31:49.329Z,99118.97
2019-04-03T21:36:52.933Z,99116.99
2019-04-03T21:41:56.586Z,99114.09
2019-04-03T21:47:00.137Z,99120.25
2019-04-03T21:52:03.715Z,99116.71
2019-04-03T21:57:07.284Z,99127.95
2019-04-03T22:02:10.851Z,99132.84
2019-04-03T22:07:14.428Z,99122.58
2019-04-03T22:12:18.005Z,99126.98
2019-04-03T22:17:21.989Z,99126.19
2019-04-03T22:22:26.066Z,99126.19
2019-04-03T22:27:29.685Z,99130.52
2019-04-03T22:32:33.293Z,99107.03
2019-04-03T22:37:36.873Z,99113.39
2019-04-03T22:42:40.525Z,99111.55
2019-04-03T22:47:44.188Z,99109.02
2019-04-03T22:52:47.846Z,99108.05
2019-04-03T22:57:51.436Z,99108.99
2019-04-03T23:02:55.018Z,99107.11
2019-04-03T23:07:58.608Z,99097.58
2019-04-03T23:13:04.493Z,99101.84
2019-04-03T23:18:07.511Z,99106.91
2019-04-03T23:23:11.077Z,99105.28
2019-04-03T23:28:14.677Z,99097.73
2019-04-03T23:33:18.247Z,99091.66
2019-04-03T23:38:21.826Z,99083.39
2019-04-03T23:43:25.684Z,99081.84
2019-04-03T23:48:29.256Z,99071.67
2019-04-03T23:53:32.845Z,99063.88
2019-04-03T23:58:36.424Z,99060.44
